createdAt,value
2023-05-08T00:02:29.910Z,94.38
2023-05-08T00:05:16.775Z,93.34
2023-05-08T00:08:01.736Z,93.45
2023-05-08T00:10:48.689Z,92.70
2023-05-08T00:13:29.892Z,92.97
2023-05-08T00:16:18.033Z,92.12
2023-05-08T00:19:05.027Z,91.74
2023-05-08T00:21:45.402Z,91.27
2023-05-08T00:24:32.828Z,90.80
2023-05-08T00:27:13.605Z,90.36
2023-05-08T00:30:00.848Z,90.61
2023-05-08T00:32:47.947Z,90.42
2023-05-08T00:35:35.753Z,89.95
2023-05-08T00:38:16.874Z,89.21
2023-05-08T00:41:10.926Z,88.43
2023-05-08T00:43:57.944Z,87.08
2023-05-08T00:46:39.004Z,86.88
2023-05-08T00:49:25.706Z,86.96
2023-05-08T00:52:08.749Z,86.77
2023-05-08T00:54:55.611Z,86.91
2023-05-08T00:57:45.637Z,86.44
2023-05-08T01:00:33.584Z,86.89
2023-05-08T01:03:15.062Z,85.65
2023-05-08T01:06:01.617Z,86.02
2023-05-08T01:08:41.860Z,85.90
2023-05-08T01:11:51.578Z,84.69
2023-05-08T01:14:40.828Z,84.57
2023-05-08T01:17:48.059Z,85.04
2023-05-08T01:20:41.866Z,84.13
2023-05-08T01:23:52.598Z,83.35
2023-05-08T01:27:01.691Z,83.03
2023-05-08T01:30:03.192Z,82.95
2023-05-08T01:33:11.053Z,82.80
2023-05-08T01:36:05.731Z,82.77
2023-05-08T01:39:15.694Z,82.28
2023-05-08T01:42:09.223Z,82.01
2023-05-08T01:44:54.572Z,82.37
2023-05-08T01:47:39.567Z,82.64
2023-05-08T01:50:39.682Z,83.30
2023-05-08T01:53:30.398Z,82.81
2023-05-08T01:56:25.578Z,82.76
2023-05-08T01:59:12.569Z,82.75
2023-05-08T02:01:54.611Z,83.27
2023-05-08T02:04:42.566Z,82.77
2023-05-08T02:07:22.676Z,82.55
2023-05-08T02:10:11.764Z,83.27
2023-05-08T02:13:02.553Z,83.11
2023-05-08T02:15:43.449Z,83.18
2023-05-08T02:18:34.514Z,82.37
2023-05-08T02:21:22.566Z,80.86
2023-05-08T02:24:11.547Z,79.31
2023-05-08T02:26:54.614Z,78.74
2023-05-08T02:29:42.932Z,78.64
2023-05-08T02:32:26.372Z,80.34
2023-05-08T02:35:13.500Z,80.16
2023-05-08T02:38:03.460Z,80.25
2023-05-08T02:40:47.596Z,79.68
2023-05-08T02:43:34.452Z,78.30
2023-05-08T02:46:46.870Z,77.78
2023-05-08T02:50:16.467Z,78.99
2023-05-08T02:53:07.436Z,79.97
2023-05-08T02:55:58.139Z,79.51
2023-05-08T02:58:53.454Z,80.10
2023-05-08T03:01:42.530Z,79.03
2023-05-08T03:04:40.451Z,79.49
2023-05-08T03:07:31.448Z,79.17
2023-05-08T03:10:24.436Z,77.85
2023-05-08T03:13:13.373Z,79.24
2023-05-08T03:16:06.497Z,78.14
2023-05-08T03:19:03.398Z,78.36
2023-05-08T03:21:45.518Z,77.06
2023-05-08T03:24:34.432Z,76.41
2023-05-08T03:27:15.589Z,76.19
2023-05-08T03:30:04.393Z,76.29
2023-05-08T03:32:47.521Z,76.27
2023-05-08T03:35:35.414Z,75.42
2023-05-08T03:38:23.365Z,75.81
2023-05-08T03:41:11.410Z,74.80
2023-05-08T03:43:52.507Z,74.63
2023-05-08T03:46:39.417Z,75.25
2023-05-08T03:49:21.473Z,74.98
2023-05-08T03:52:09.392Z,72.51
2023-05-08T03:54:49.466Z,71.49
2023-05-08T03:57:44.397Z,68.69
2023-05-08T04:01:06.880Z,65.37
2023-05-08T04:04:06.403Z,63.46
2023-05-08T04:06:56.981Z,63.37
2023-05-08T04:10:09.389Z,60.59
2023-05-08T04:13:09.578Z,58.31
2023-05-08T04:16:21.378Z,57.81
2023-05-08T04:19:08.481Z,56.76
2023-05-08T04:21:57.361Z,55.47
2023-05-08T04:24:47.369Z,54.12
2023-05-08T04:27:29.328Z,54.22
2023-05-08T04:30:17.317Z,55.79
2023-05-08T04:32:59.683Z,57.33
2023-05-08T04:35:47.316Z,57.19
2023-05-08T04:38:34.440Z,56.40
2023-05-08T04:41:22.614Z,56.10
2023-05-08T04:44:02.431Z,56.62
2023-05-08T04:46:49.317Z,55.84
2023-05-08T04:49:36.310Z,58.92
2023-05-08T04:52:16.774Z,59.88
2023-05-08T04:55:03.351Z,59.81
2023-05-08T04:57:46.128Z,60.50
2023-05-08T05:00:34.630Z,59.89
2023-05-08T05:03:14.868Z,59.39
2023-05-08T05:06:01.351Z,59.34
2023-05-08T05:08:41.695Z,58.70
2023-05-08T05:11:29.286Z,56.96
2023-05-08T05:14:09.705Z,58.60
2023-05-08T05:16:56.270Z,59.91
2023-05-08T05:19:51.617Z,63.03
2023-05-08T05:22:33.664Z,58.76
2023-05-08T05:25:22.323Z,56.17
2023-05-08T05:28:02.857Z,54.26
2023-05-08T05:30:49.313Z,50.26
2023-05-08T05:33:29.666Z,51.75
2023-05-08T05:36:16.232Z,48.19
2023-05-08T05:38:56.586Z,47.70
2023-05-08T05:41:43.248Z,48.75
2023-05-08T05:44:30.392Z,52.00
2023-05-08T05:47:12.331Z,53.07
2023-05-08T05:49:59.479Z,50.79
2023-05-08T05:52:40.284Z,50.08
2023-05-08T05:55:21.081Z,49.45
2023-05-08T05:58:09.251Z,48.62
2023-05-08T06:00:51.493Z,48.52
2023-05-08T06:03:38.316Z,49.85
2023-05-08T06:06:18.622Z,47.96
2023-05-08T06:09:05.243Z,47.52
2023-05-08T06:11:52.185Z,48.07
2023-05-08T06:14:32.263Z,51.07
2023-05-08T06:17:19.441Z,49.39
2023-05-08T06:20:00.275Z,50.63
2023-05-08T06:22:48.212Z,52.62
2023-05-08T06:25:35.244Z,53.97
2023-05-08T06:28:15.591Z,52.50
2023-05-08T06:31:02.287Z,53.77
2023-05-08T06:33:49.180Z,52.50
2023-05-08T06:36:29.278Z,50.35
2023-05-08T06:39:16.205Z,51.31
2023-05-08T06:42:12.195Z,49.40
2023-05-08T06:44:53.833Z,47.90
2023-05-08T06:47:40.180Z,43.66
2023-05-08T06:50:20.746Z,45.11
2023-05-08T06:53:07.242Z,44.18
2023-05-08T06:55:50.170Z,43.91
2023-05-08T06:58:39.170Z,44.24
2023-05-08T07:01:19.424Z,44.87
2023-05-08T07:04:07.219Z,46.81
2023-05-08T07:06:47.373Z,46.74
2023-05-08T07:09:34.170Z,43.14
2023-05-08T07:12:16.626Z,42.90
2023-05-08T07:15:13.748Z,40.98
2023-05-08T07:18:03.294Z,40.33
2023-05-08T07:20:50.154Z,40.46
2023-05-08T07:23:37.152Z,43.16
2023-05-08T07:40:23.736Z,43.97
2023-05-08T07:43:04.122Z,44.00
2023-05-08T07:45:50.685Z,44.04
2023-05-08T07:48:31.216Z,44.02
2023-05-08T07:51:17.713Z,43.35
2023-05-08T07:53:58.699Z,40.26
2023-05-08T07:56:45.687Z,37.49
2023-05-08T07:59:32.691Z,36.62
2023-05-08T08:02:13.267Z,35.85
2023-05-08T08:04:59.745Z,34.33
2023-05-08T08:07:46.645Z,35.47
2023-05-08T08:10:27.246Z,38.19
2023-05-08T08:13:13.659Z,41.20
2023-05-08T08:15:54.039Z,39.48
2023-05-08T08:18:40.640Z,38.82
2023-05-08T08:21:21.037Z,40.93
2023-05-08T08:24:07.673Z,41.71
2023-05-08T08:26:48.119Z,40.75
2023-05-08T08:29:34.732Z,39.97
2023-05-08T08:32:14.971Z,38.26
2023-05-08T08:35:01.619Z,36.76
2023-05-08T08:37:42.085Z,36.98
2023-05-08T08:40:28.634Z,37.86
2023-05-08T08:43:16.654Z,38.88
2023-05-08T08:45:56.804Z,38.10
2023-05-08T08:48:44.778Z,41.23
2023-05-08T08:51:52.733Z,41.22
2023-05-08T08:54:41.612Z,39.75
2023-05-08T08:57:29.585Z,39.93
2023-05-08T09:00:18.811Z,44.90
2023-05-08T09:02:58.782Z,47.15
2023-05-08T09:05:46.590Z,47.12
2023-05-08T09:08:26.746Z,48.26
2023-05-08T09:11:13.585Z,47.68
2023-05-08T09:13:53.718Z,47.83
2023-05-08T09:16:40.665Z,48.42
2023-05-08T09:19:24.391Z,47.74
2023-05-08T09:22:15.601Z,48.20
2023-05-08T09:25:09.614Z,49.35
2023-05-08T09:27:49.923Z,51.21
2023-05-08T09:30:36.592Z,53.94
2023-05-08T09:33:17.985Z,56.65
2023-05-08T09:36:04.588Z,57.71
2023-05-08T09:38:51.583Z,56.43
2023-05-08T09:41:31.697Z,50.01
2023-05-08T09:44:18.551Z,46.54
2023-05-08T09:47:05.636Z,43.74
2023-05-08T09:50:06.244Z,40.26
2023-05-08T09:52:52.578Z,42.21
2023-05-08T09:55:54.581Z,44.36
2023-05-08T09:58:47.666Z,50.75
2023-05-08T10:01:43.630Z,49.80
2023-05-08T10:04:30.560Z,49.54
2023-05-08T10:07:12.989Z,46.13
2023-05-08T10:10:19.683Z,45.53
2023-05-08T10:13:06.605Z,43.16
2023-05-08T10:15:49.658Z,44.98
2023-05-08T10:18:42.541Z,49.08
2023-05-08T10:21:23.576Z,51.33
2023-05-08T10:24:15.489Z,52.27
2023-05-08T10:27:19.577Z,52.17
2023-05-08T10:30:04.455Z,50.12
2023-05-08T10:32:56.946Z,48.17
2023-05-08T10:35:40.381Z,46.84
2023-05-08T10:38:30.494Z,45.06
2023-05-08T10:41:19.010Z,44.59
2023-05-08T10:44:01.616Z,44.00
2023-05-08T10:46:52.156Z,45.64
2023-05-08T10:50:02.453Z,53.56
2023-05-08T10:52:57.492Z,58.08
2023-05-08T10:55:39.895Z,58.42
2023-05-08T10:58:36.487Z,56.44
2023-05-08T11:01:23.580Z,54.49
2023-05-08T11:04:21.625Z,49.43
2023-05-08T11:07:08.517Z,52.63
2023-05-08T11:09:49.178Z,55.50
2023-05-08T11:12:40.495Z,53.31
2023-05-08T11:15:37.435Z,52.89
2023-05-08T11:18:26.347Z,52.91
2023-05-08T11:21:15.953Z,51.76
2023-05-08T11:24:10.893Z,53.32
2023-05-08T11:26:50.817Z,57.97
2023-05-08T11:29:37.426Z,59.33
2023-05-08T11:32:17.849Z,62.32
2023-05-08T11:35:04.536Z,64.10
2023-05-08T11:38:26.487Z,63.01
2023-05-08T11:41:37.738Z,65.33
2023-05-08T11:44:27.852Z,66.10
2023-05-08T11:47:17.664Z,65.31
2023-05-08T11:50:04.456Z,63.43
2023-05-08T11:52:46.517Z,63.24
2023-05-08T11:55:33.386Z,63.35
2023-05-08T11:58:20.664Z,65.62
2023-05-08T12:01:07.441Z,65.45
2023-05-08T12:03:47.586Z,68.45
2023-05-08T12:06:35.417Z,68.85
2023-05-08T12:09:24.583Z,68.98
2023-05-08T12:12:11.417Z,69.87
2023-05-08T12:14:55.860Z,69.69
2023-05-08T12:17:42.488Z,70.87
2023-05-08T12:20:24.462Z,69.54
2023-05-08T12:23:11.428Z,68.47
2023-05-08T12:25:53.147Z,69.12
2023-05-08T12:28:41.382Z,62.65
2023-05-08T12:31:21.555Z,60.67
2023-05-08T12:34:10.510Z,62.60
2023-05-08T12:36:51.409Z,62.65
2023-05-08T12:39:43.361Z,62.30
2023-05-08T12:42:23.561Z,62.35
2023-05-08T12:45:10.374Z,63.15
2023-05-08T12:47:54.748Z,63.56
2023-05-08T12:50:44.971Z,62.00
2023-05-08T12:53:28.437Z,60.82
2023-05-08T12:56:15.372Z,65.89
2023-05-08T12:58:55.513Z,66.54
2023-05-08T13:01:42.419Z,67.70
2023-05-08T13:04:22.467Z,65.46
2023-05-08T13:07:09.322Z,65.30
2023-05-08T13:10:04.566Z,66.53
2023-05-08T13:12:54.359Z,68.95
2023-05-08T13:15:34.450Z,69.29
2023-05-08T13:18:22.347Z,68.61
2023-05-08T13:21:10.305Z,67.73
2023-05-08T13:23:50.687Z,69.38
2023-05-08T13:26:37.350Z,70.07
2023-05-08T13:29:17.660Z,69.39
2023-05-08T13:32:04.317Z,69.32
2023-05-08T13:34:50.253Z,70.67
2023-05-08T13:37:38.280Z,73.74
2023-05-08T13:40:32.321Z,74.30
2023-05-08T13:43:19.338Z,74.58
2023-05-08T13:45:59.475Z,73.76
2023-05-08T13:48:46.270Z,74.91
2023-05-08T13:51:26.551Z,73.36
2023-05-08T13:54:13.281Z,72.79
2023-05-08T13:56:54.031Z,71.23
2023-05-08T13:59:42.292Z,73.22
2023-05-08T14:02:29.406Z,74.42
2023-05-08T14:05:10.077Z,75.53
2023-05-08T14:07:57.304Z,76.99
2023-05-08T14:10:44.281Z,76.73
2023-05-08T14:13:31.253Z,78.41
2023-05-08T14:16:19.322Z,80.22
2023-05-08T14:19:06.253Z,80.66
2023-05-08T14:21:53.282Z,82.39
2023-05-08T14:24:40.255Z,82.62
2023-05-08T14:27:20.948Z,82.74
2023-05-08T14:30:07.236Z,83.41
2023-05-08T14:32:47.698Z,82.56
2023-05-08T14:35:34.252Z,84.01
2023-05-08T14:38:15.050Z,86.28
2023-05-08T14:41:05.283Z,86.86
2023-05-08T14:43:52.228Z,87.31
2023-05-08T14:46:32.626Z,88.74
2023-05-08T14:49:25.436Z,88.51
2023-05-08T14:52:13.339Z,88.89
2023-05-08T14:55:00.371Z,88.12
2023-05-08T14:57:40.467Z,89.71
2023-05-08T15:00:28.204Z,91.54
2023-05-08T15:03:08.352Z,94.06
2023-05-08T15:05:55.399Z,96.47
2023-05-08T15:08:42.226Z,96.13
2023-05-08T15:11:29.214Z,96.51
2023-05-08T15:14:10.320Z,96.40
2023-05-08T15:16:57.126Z,95.39
2023-05-08T15:19:37.285Z,98.09
2023-05-08T15:22:24.735Z,99.25
2023-05-08T15:25:06.363Z,99.60
2023-05-08T15:28:00.573Z,100.00
2023-05-08T15:30:48.099Z,100.00
2023-05-08T15:33:28.539Z,100.00
2023-05-08T15:36:15.161Z,100.00
2023-05-08T15:39:02.128Z,100.00
2023-05-08T15:41:42.335Z,100.00
2023-05-08T15:44:41.612Z,100.00
2023-05-08T15:47:29.291Z,100.00
2023-05-08T15:50:16.114Z,100.00
2023-05-08T15:52:56.267Z,100.00
2023-05-08T15:55:43.143Z,100.00
2023-05-08T15:58:30.124Z,100.00
2023-05-08T16:01:10.585Z,100.00
2023-05-08T16:03:57.121Z,100.00
2023-05-08T16:06:37.500Z,100.00
2023-05-08T16:09:24.091Z,100.00
2023-05-08T16:12:04.797Z,100.00
2023-05-08T16:14:51.123Z,100.00
2023-05-08T16:17:39.108Z,100.00
2023-05-08T16:20:19.188Z,100.00
2023-05-08T16:23:06.080Z,100.00
2023-05-08T16:25:46.186Z,100.00
2023-05-08T16:28:33.073Z,100.00
2023-05-08T16:31:13.338Z,100.00
2023-05-08T16:34:00.083Z,100.00
2023-05-08T16:36:40.711Z,100.00
2023-05-08T16:39:27.103Z,100.00
2023-05-08T16:42:14.052Z,100.00
2023-05-08T16:45:01.208Z,100.00
2023-05-08T16:47:41.162Z,100.00
2023-05-08T16:50:28.065Z,100.00
2023-05-08T16:53:08.151Z,100.00
2023-05-08T16:55:55.084Z,100.00
2023-05-08T16:58:42.037Z,100.00
2023-05-08T17:01:29.061Z,100.00
2023-05-08T17:04:09.179Z,100.00
2023-05-08T17:06:56.018Z,100.00
2023-05-08T17:09:36.155Z,100.00
2023-05-08T17:12:23.021Z,100.00
2023-05-08T17:15:10.037Z,100.00
2023-05-08T17:17:50.710Z,100.00
2023-05-08T17:20:37.056Z,100.00
2023-05-08T17:23:17.902Z,100.00
2023-05-08T17:26:14.024Z,100.00
2023-05-08T17:29:00.989Z,100.00
2023-05-08T17:31:41.190Z,100.00
2023-05-08T17:34:29.013Z,100.00
2023-05-08T17:37:16.014Z,100.00
2023-05-08T17:40:09.999Z,100.00
2023-05-08T17:42:57.064Z,100.00
2023-05-08T17:45:37.236Z,100.00
2023-05-08T17:48:24.032Z,100.00
2023-05-08T17:51:04.161Z,100.00
2023-05-08T17:53:50.939Z,100.00
2023-05-08T17:56:31.889Z,100.00
2023-05-08T17:59:18.953Z,100.00
2023-05-08T18:01:59.175Z,100.00
2023-05-08T18:04:46.010Z,100.00
2023-05-08T18:07:33.021Z,100.00
2023-05-08T18:10:20.092Z,100.00
2023-05-08T18:13:00.018Z,100.00
2023-05-08T18:15:41.276Z,100.00
2023-05-08T18:18:27.949Z,100.00
2023-05-08T18:21:08.786Z,100.00
2023-05-08T18:23:55.925Z,100.00
2023-05-08T18:26:36.340Z,100.00
2023-05-08T18:29:22.940Z,100.00
2023-05-08T18:32:11.361Z,100.00
2023-05-08T18:34:50.918Z,100.00
2023-05-08T18:37:37.929Z,100.00
2023-05-08T18:40:25.195Z,100.00
2023-05-08T18:43:05.391Z,100.00
2023-05-08T18:45:52.892Z,100.00
2023-05-08T18:48:39.990Z,100.00
2023-05-08T18:51:19.929Z,100.00
2023-05-08T18:54:06.885Z,100.00
2023-05-08T18:56:46.986Z,100.00
2023-05-08T18:59:33.868Z,100.00
2023-05-08T19:02:20.916Z,100.00
2023-05-08T19:05:01.306Z,100.00
2023-05-08T19:07:47.854Z,100.00
2023-05-08T19:10:28.358Z,100.00
2023-05-08T19:13:14.954Z,100.00
2023-05-08T19:15:55.363Z,100.00
2023-05-08T19:18:42.873Z,100.00
2023-05-08T19:21:23.340Z,100.00
2023-05-08T19:24:09.809Z,100.00
2023-05-08T19:26:56.922Z,100.00
2023-05-08T19:42:00.169Z,100.00
2023-05-08T19:44:47.114Z,100.00
2023-05-08T19:47:27.270Z,100.00
2023-05-08T19:50:15.329Z,100.00
2023-05-08T19:53:02.075Z,100.00
2023-05-08T19:55:49.502Z,100.00
2023-05-08T19:58:29.075Z,100.00
2023-05-08T20:01:16.293Z,100.00
2023-05-08T20:03:58.984Z,100.00
2023-05-08T20:06:47.199Z,100.00
2023-05-08T20:09:27.121Z,100.00
2023-05-08T20:12:07.583Z,100.00
2023-05-08T20:14:54.058Z,100.00
2023-05-08T20:17:34.513Z,100.00
2023-05-08T20:20:15.115Z,100.00
2023-05-08T20:22:55.260Z,100.00
2023-05-08T20:25:42.166Z,100.00
2023-05-08T20:28:25.213Z,100.00
2023-05-08T20:31:12.008Z,100.00
2023-05-08T20:33:52.124Z,100.00
2023-05-08T20:36:39.038Z,100.00
2023-05-08T20:39:19.074Z,100.00
2023-05-08T20:42:06.020Z,100.00
2023-05-08T20:44:53.049Z,100.00
2023-05-08T20:47:40.036Z,100.00
2023-05-08T20:50:27.034Z,100.00
2023-05-08T20:53:07.402Z,100.00
2023-05-08T20:55:53.998Z,100.00
2023-05-08T20:58:41.018Z,100.00
2023-05-08T21:01:21.348Z,100.00
2023-05-08T21:04:08.087Z,100.00
2023-05-08T21:06:48.955Z,100.00
2023-05-08T21:09:36.998Z,100.00
2023-05-08T21:12:23.943Z,100.00
2023-05-08T21:15:05.628Z,100.00
2023-05-08T21:17:51.990Z,100.00
2023-05-08T21:20:33.903Z,100.00
2023-05-08T21:23:20.968Z,100.00
2023-05-08T21:26:01.304Z,100.00
2023-05-08T21:28:47.999Z,100.00
2023-05-08T21:31:28.998Z,100.00
2023-05-08T21:34:17.006Z,100.00
2023-05-08T21:36:57.498Z,100.00
2023-05-08T21:39:43.983Z,100.00
2023-05-08T21:42:24.302Z,100.00
2023-05-08T21:45:12.127Z,100.00
2023-05-08T21:47:59.008Z,100.00
2023-05-08T21:50:39.050Z,100.00
2023-05-08T21:53:25.916Z,100.00
2023-05-08T21:56:06.015Z,100.00
2023-05-08T21:58:52.959Z,100.00
2023-05-08T22:01:33.504Z,100.00
2023-05-08T22:04:19.939Z,100.00
2023-05-08T22:07:00.025Z,100.00
2023-05-08T22:09:46.911Z,100.00
2023-05-08T22:12:33.857Z,100.00
2023-05-08T22:15:29.914Z,100.00
2023-05-08T22:18:11.004Z,100.00
2023-05-08T22:20:57.935Z,100.00
2023-05-08T22:23:40.024Z,100.00
2023-05-08T22:26:27.888Z,100.00
2023-05-08T22:29:14.873Z,100.00
2023-05-08T22:31:55.835Z,100.00
2023-05-08T22:34:42.915Z,100.00
2023-05-08T22:37:23.273Z,100.00
2023-05-08T22:40:09.907Z,100.00
2023-05-08T22:42:57.905Z,100.00
2023-05-08T22:45:38.985Z,100.00
2023-05-08T22:48:25.931Z,100.00
2023-05-08T22:51:05.935Z,100.00
2023-05-08T22:53:53.855Z,100.00
2023-05-08T22:56:40.920Z,99.29
2023-05-08T22:59:21.171Z,99.77
2023-05-08T23:02:07.833Z,99.77
2023-05-08T23:04:54.919Z,99.82
2023-05-08T23:07:36.087Z,100.00
2023-05-08T23:10:22.876Z,100.00
2023-05-08T23:13:03.072Z,100.00
2023-05-08T23:15:49.804Z,99.74
2023-05-08T23:18:29.892Z,99.92
2023-05-08T23:21:16.824Z,100.00
2023-05-08T23:24:03.988Z,100.00
2023-05-08T23:26:50.794Z,100.00
2023-05-08T23:29:30.925Z,100.00
2023-05-08T23:32:17.867Z,100.00
2023-05-08T23:34:57.921Z,99.84
2023-05-08T23:37:44.829Z,100.00
2023-05-08T23:40:24.961Z,99.64
2023-05-08T23:43:12.799Z,99.55
2023-05-08T23:45:52.893Z,100.00
2023-05-08T23:48:39.749Z,99.96
2023-05-08T23:51:19.910Z,98.83
2023-05-08T23:54:06.757Z,99.02
2023-05-08T23:56:46.866Z,98.25
2023-05-08T23:59:33.746Z,98.72
